Portada
METAR-TAF:

METAR-TAF

Aeropuertos :

Aeropuerto Internacional de Turkmenbashi

Türkmenbaşy, Turkmenistán

latitud: 40-03-48N, longitud: 053-00-26E, altitud: 86 m

Observación

El informe se hizo hace 35 minutos, a las 06:00 UTC
Viento 19 kt del sur-sureste
Temperatura 16°C
Humedad 31%
Presión 1011 hPa
Visibilidad 10 km o más
sin nubes por debajo de 1500 m y sin presencia de cumulonimbus.

METAR: UTAK 130600Z 15019KT CAVOK 16/M01 Q1011 R16R/CLRD70 NOSIG

Hora: 11:35 (06:35 UTC)

Pronóstico

El informe se hizo hace 2 horas y 5 minutos, a las 04:30 UTC
Pronóstico válido del 13 a las 06 UTC al 14 a las 06 UTC
Viento 16 kt del sur-sureste
Visibilidad 10 km o más
sin nubes por debajo de 1500 m y sin presencia de cumulonimbus.
Temporalmente
del 13 a las 10 UTC al 13 a las 13 UTC
Viento 4 kt con dirección variable

TAF: UTAK 130430Z 1306/1406 16016KT CAVOK 530009 TEMPO 1310/1313 VRB04KT

Observaciones y pronósticos meteorológicos de más de 4000 aeropuertos (mensajes METAR y TAF).

Los puntos amarillos y rojos representan las estaciones disponibles.

Ponga el ratón en el punto deseado para ver el nombre de la estación.

Haga clic para ver las observaciones y los pronósticos meteorológicos.

Para cambiar el mapa : haga clic en los botones verdes con una cruz de color negro para hacer un zoom, en el botón verde con un guión para alejar o en las flechas verdes para mapas adyacentes.


METAR-TAF: